sensor_id;sensor_type;location;lat;lon;timestamp;pressure;altitude;pressure_sealevel;temperature;humidity
45621;BME280;31345;51.522;10.702;2023-02-15T00:00:46;100539.94;;;-1.68;100.00
45621;BME280;31345;51.522;10.702;2023-02-15T00:03:19;100544.94;;;-1.83;100.00
45621;BME280;31345;51.522;10.702;2023-02-15T00:05:51;100537.13;;;-1.93;100.00
45621;BME280;31345;51.522;10.702;2023-02-15T00:08:24;100533.97;;;-1.65;100.00
45621;BME280;31345;51.522;10.702;2023-02-15T00:10:52;100526.91;;;-1.90;100.00
45621;BME280;31345;51.522;10.702;2023-02-15T00:13:19;100527.84;;;-1.80;100.00
45621;BME280;31345;51.522;10.702;2023-02-15T00:15:48;100527.97;;;-1.66;100.00
45621;BME280;31345;51.522;10.702;2023-02-15T00:18:21;100525.34;;;-1.70;100.00
45621;BME280;31345;51.522;10.702;2023-02-15T00:20:53;100526.91;;;-1.91;100.00
45621;BME280;31345;51.522;10.702;2023-02-15T00:23:21;100521.78;;;-1.94;100.00
45621;BME280;31345;51.522;10.702;2023-02-15T00:26:03;100525.25;;;-1.84;100.00
45621;BME280;31345;51.522;10.702;2023-02-15T00:28:31;100529.63;;;-1.71;100.00
45621;BME280;31345;51.522;10.702;2023-02-15T00:31:07;100525.28;;;-1.81;100.00
45621;BME280;31345;51.522;10.702;2023-02-15T00:33:40;100523.66;;;-1.70;100.00
45621;BME280;31345;51.522;10.702;2023-02-15T00:36:09;100527.09;;;-1.68;100.00
45621;BME280;31345;51.522;10.702;2023-02-15T00:38:42;100514.38;;;-1.54;100.00
45621;BME280;31345;51.522;10.702;2023-02-15T00:41:15;100524.59;;;-1.60;100.00
45621;BME280;31345;51.522;10.702;2023-02-15T00:43:47;100516.22;;;-1.34;100.00
45621;BME280;31345;51.522;10.702;2023-02-15T00:46:22;100505.81;;;-1.56;100.00
45621;BME280;31345;51.522;10.702;2023-02-15T00:48:54;100515.84;;;-1.84;100.00
45621;BME280;31345;51.522;10.702;2023-02-15T00:51:22;100509.09;;;-1.74;100.00
45621;BME280;31345;51.522;10.702;2023-02-15T00:53:50;100507.41;;;-1.70;100.00
45621;BME280;31345;51.522;10.702;2023-02-15T00:56:23;100505.63;;;-1.81;100.00
45621;BME280;31345;51.522;10.702;2023-02-15T00:58:50;100502.25;;;-1.75;100.00
45621;BME280;31345;51.522;10.702;2023-02-15T01:01:19;100499.59;;;-1.84;100.00
45621;BME280;31345;51.522;10.702;2023-02-15T01:03:53;100502.06;;;-2.00;100.00
45621;BME280;31345;51.522;10.702;2023-02-15T01:06:26;100493.44;;;-2.07;100.00
45621;BME280;31345;51.522;10.702;2023-02-15T01:08:59;100484.91;;;-2.09;100.00
45621;BME280;31345;51.522;10.702;2023-02-15T01:11:31;100490.06;;;-2.04;100.00
45621;BME280;31345;51.522;10.702;2023-02-15T01:13:59;100491.06;;;-1.85;100.00
45621;BME280;31345;51.522;10.702;2023-02-15T01:16:27;100494.47;;;-1.84;100.00
45621;BME280;31345;51.522;10.702;2023-02-15T01:19:02;100489.38;;;-1.81;100.00
45621;BME280;31345;51.522;10.702;2023-02-15T01:21:36;100480.84;;;-1.79;100.00
45621;BME280;31345;51.522;10.702;2023-02-15T01:24:11;100481.47;;;-2.08;100.00
45621;BME280;31345;51.522;10.702;2023-02-15T01:26:39;100479.03;;;-1.94;100.00
45621;BME280;31345;51.522;10.702;2023-02-15T01:29:12;100475.63;;;-1.93;100.00
45621;BME280;31345;51.522;10.702;2023-02-15T01:31:45;100475.78;;;-1.72;100.00
45621;BME280;31345;51.522;10.702;2023-02-15T01:34:20;100476.41;;;-2.02;100.00
45621;BME280;31345;51.522;10.702;2023-02-15T01:36:53;100470.22;;;-2.26;100.00
45621;BME280;31345;51.522;10.702;2023-02-15T01:39:25;100467.94;;;-1.96;100.00
45621;BME280;31345;51.522;10.702;2023-02-15T01:41:58;100465.28;;;-2.02;100.00
45621;BME280;31345;51.522;10.702;2023-02-15T01:44:48;100463.66;;;-1.92;100.00
45621;BME280;31345;51.522;10.702;2023-02-15T01:47:25;100452.41;;;-2.13;100.00
45621;BME280;31345;51.522;10.702;2023-02-15T01:50:04;100456.75;;;-2.01;100.00
45621;BME280;31345;51.522;10.702;2023-02-15T01:52:44;100450.50;;;-2.34;100.00
45621;BME280;31345;51.522;10.702;2023-02-15T01:55:18;100451.38;;;-2.32;100.00
45621;BME280;31345;51.522;10.702;2023-02-15T01:57:47;100442.94;;;-2.20;100.00
45621;BME280;31345;51.522;10.702;2023-02-15T02:00:15;100442.88;;;-2.27;100.00
45621;BME280;31345;51.522;10.702;2023-02-15T02:02:50;100439.47;;;-2.27;100.00
45621;BME280;31345;51.522;10.702;2023-02-15T02:05:26;100441.94;;;-2.38;100.00
45621;BME280;31345;51.522;10.702;2023-02-15T02:08:00;100435.69;;;-2.65;100.00
45621;BME280;31345;51.522;10.702;2023-02-15T02:10:28;100436.03;;;-2.28;100.00
45621;BME280;31345;51.522;10.702;2023-02-15T02:13:03;100438.63;;;-2.24;100.00
45621;BME280;31345;51.522;10.702;2023-02-15T02:15:43;100437.81;;;-2.20;100.00
45621;BME280;31345;51.522;10.702;2023-02-15T02:18:32;100434.94;;;-2.56;100.00
45621;BME280;31345;51.522;10.702;2023-02-15T02:21:19;100435.94;;;-2.40;100.00
45621;BME280;31345;51.522;10.702;2023-02-15T02:24:08;100435.03;;;-2.47;100.00
45621;BME280;31345;51.522;10.702;2023-02-15T02:27:12;100433.38;;;-2.39;100.00
45621;BME280;31345;51.522;10.702;2023-02-15T02:30:20;100429.25;;;-2.26;100.00
45621;BME280;31345;51.522;10.702;2023-02-15T02:33:18;100429.19;;;-2.30;100.00
45621;BME280;31345;51.522;10.702;2023-02-15T02:35:57;100427.31;;;-2.48;100.00
45621;BME280;31345;51.522;10.702;2023-02-15T02:38:44;100425.75;;;-2.35;100.00
45621;BME280;31345;51.522;10.702;2023-02-15T02:41:24;100417.16;;;-2.42;100.00
45621;BME280;31345;51.522;10.702;2023-02-15T02:44:06;100421.44;;;-2.38;100.00
45621;BME280;31345;51.522;10.702;2023-02-15T02:46:46;100415.53;;;-2.29;100.00
45621;BME280;31345;51.522;10.702;2023-02-15T02:49:31;100419.06;;;-2.16;100.00
45621;BME280;31345;51.522;10.702;2023-02-15T02:51:59;100419.00;;;-2.26;100.00
45621;BME280;31345;51.522;10.702;2023-02-15T02:54:28;100414.59;;;-2.42;100.00
45621;BME280;31345;51.522;10.702;2023-02-15T02:56:59;100421.16;;;-2.69;100.00
45621;BME280;31345;51.522;10.702;2023-02-15T02:59:37;100411.75;;;-2.69;100.00
45621;BME280;31345;51.522;10.702;2023-02-15T03:02:17;100413.78;;;-2.33;100.00
45621;BME280;31345;51.522;10.702;2023-02-15T03:04:58;100409.44;;;-2.45;100.00
45621;BME280;31345;51.522;10.702;2023-02-15T03:07:31;100405.16;;;-2.45;100.00
45621;BME280;31345;51.522;10.702;2023-02-15T03:10:02;100403.19;;;-2.74;100.00
45621;BME280;31345;51.522;10.702;2023-02-15T03:12:32;100389.72;;;-2.54;100.00
45621;BME280;31345;51.522;10.702;2023-02-15T03:15:10;100393.03;;;-2.66;100.00
45621;BME280;31345;51.522;10.702;2023-02-15T03:17:47;100397.38;;;-2.56;100.00
45621;BME280;31345;51.522;10.702;2023-02-15T03:20:24;100399.16;;;-2.48;100.00
45621;BME280;31345;51.522;10.702;2023-02-15T03:22:54;100385.66;;;-2.29;100.00
45621;BME280;31345;51.522;10.702;2023-02-15T03:25:32;100391.66;;;-2.23;100.00
45621;BME280;31345;51.522;10.702;2023-02-15T03:28:08;100388.25;;;-2.26;100.00
45621;BME280;31345;51.522;10.702;2023-02-15T03:30:44;100396.03;;;-2.11;100.00
45621;BME280;31345;51.522;10.702;2023-02-15T03:33:18;100392.34;;;-2.43;100.00
45621;BME280;31345;51.522;10.702;2023-02-15T03:36:02;100380.38;;;-2.47;100.00
45621;BME280;31345;51.522;10.702;2023-02-15T03:38:49;100383.84;;;-2.39;100.00
45621;BME280;31345;51.522;10.702;2023-02-15T03:41:25;100381.09;;;-2.62;100.00
45621;BME280;31345;51.522;10.702;2023-02-15T03:44:04;100379.31;;;-2.71;100.00
45621;BME280;31345;51.522;10.702;2023-02-15T03:46:42;100383.75;;;-2.52;100.00
45621;BME280;31345;51.522;10.702;2023-02-15T03:49:21;100374.53;;;-2.31;100.00
45621;BME280;31345;51.522;10.702;2023-02-15T03:51:57;100371.06;;;-2.38;100.00
45621;BME280;31345;51.522;10.702;2023-02-15T03:54:33;100376.03;;;-2.55;100.00
45621;BME280;31345;51.522;10.702;2023-02-15T03:57:15;100369.00;;;-2.79;100.00
45621;BME280;31345;51.522;10.702;2023-02-15T04:00:11;100370.81;;;-2.70;100.00
45621;BME280;31345;51.522;10.702;2023-02-15T04:03:12;100367.41;;;-2.65;100.00
45621;BME280;31345;51.522;10.702;2023-02-15T04:05:43;100372.66;;;-2.54;100.00
45621;BME280;31345;51.522;10.702;2023-02-15T04:08:17;100367.47;;;-2.60;100.00
45621;BME280;31345;51.522;10.702;2023-02-15T04:10:49;100369.25;;;-2.51;100.00
45621;BME280;31345;51.522;10.702;2023-02-15T04:13:19;100365.69;;;-2.67;100.00
45621;BME280;31345;51.522;10.702;2023-02-15T04:15:53;100358.81;;;-2.71;100.00
45621;BME280;31345;51.522;10.702;2023-02-15T04:18:30;100357.13;;;-2.71;100.00
45621;BME280;31345;51.522;10.702;2023-02-15T04:21:21;100350.47;;;-2.52;100.00
45621;BME280;31345;51.522;10.702;2023-02-15T04:24:14;100354.63;;;-2.63;100.00
45621;BME280;31345;51.522;10.702;2023-02-15T04:27:05;100359.81;;;-2.57;100.00
45621;BME280;31345;51.522;10.702;2023-02-15T04:29:37;100347.88;;;-2.55;100.00
45621;BME280;31345;51.522;10.702;2023-02-15T04:32:10;100360.41;;;-2.86;100.00
45621;BME280;31345;51.522;10.702;2023-02-15T04:34:42;100352.91;;;-2.64;100.00
45621;BME280;31345;51.522;10.702;2023-02-15T04:37:10;100354.47;;;-2.82;100.00
45621;BME280;31345;51.522;10.702;2023-02-15T04:39:44;100353.72;;;-2.71;100.00
45621;BME280;31345;51.522;10.702;2023-02-15T04:42:16;100350.31;;;-2.69;100.00
45621;BME280;31345;51.522;10.702;2023-02-15T04:44:44;100355.38;;;-2.77;100.00
45621;BME280;31345;51.522;10.702;2023-02-15T04:47:11;100346.81;;;-2.79;100.00
45621;BME280;31345;51.522;10.702;2023-02-15T04:49:39;100352.84;;;-2.73;100.00
45621;BME280;31345;51.522;10.702;2023-02-15T04:52:07;100356.28;;;-2.70;100.00
45621;BME280;31345;51.522;10.702;2023-02-15T04:54:39;100348.69;;;-2.59;100.00
45621;BME280;31345;51.522;10.702;2023-02-15T04:57:08;100348.69;;;-2.57;100.00
45621;BME280;31345;51.522;10.702;2023-02-15T04:59:36;100351.13;;;-2.73;100.00
45621;BME280;31345;51.522;10.702;2023-02-15T05:02:03;100345.09;;;-2.81;100.00
45621;BME280;31345;51.522;10.702;2023-02-15T05:04:36;100352.09;;;-2.61;100.00
45621;BME280;31345;51.522;10.702;2023-02-15T05:07:03;100343.69;;;-2.43;100.00
45621;BME280;31345;51.522;10.702;2023-02-15T05:09:31;100337.72;;;-2.44;100.00
45621;BME280;31345;51.522;10.702;2023-02-15T05:12:04;100333.44;;;-2.48;100.00
45621;BME280;31345;51.522;10.702;2023-02-15T05:14:38;100336.84;;;-2.46;100.00
45621;BME280;31345;51.522;10.702;2023-02-15T05:17:10;100333.56;;;-2.32;100.00
45621;BME280;31345;51.522;10.702;2023-02-15T05:19:43;100337.94;;;-2.16;100.00
45621;BME280;31345;51.522;10.702;2023-02-15T05:22:15;100334.34;;;-2.36;100.00
45621;BME280;31345;51.522;10.702;2023-02-15T05:24:43;100332.50;;;-2.59;100.00
45621;BME280;31345;51.522;10.702;2023-02-15T05:27:28;100334.28;;;-2.47;100.00
45621;BME280;31345;51.522;10.702;2023-02-15T05:30:15;100335.28;;;-2.28;100.00
45621;BME280;31345;51.522;10.702;2023-02-15T05:32:48;100330.97;;;-2.31;100.00
45621;BME280;31345;51.522;10.702;2023-02-15T05:35:21;100334.50;;;-2.16;100.00
45621;BME280;31345;51.522;10.702;2023-02-15T05:37:53;100331.78;;;-2.40;100.00
45621;BME280;31345;51.522;10.702;2023-02-15T05:40:21;100329.19;;;-2.44;100.00
45621;BME280;31345;51.522;10.702;2023-02-15T05:42:49;100319.78;;;-2.45;100.00
45621;BME280;31345;51.522;10.702;2023-02-15T05:45:18;100322.31;;;-2.50;100.00
45621;BME280;31345;51.522;10.702;2023-02-15T05:47:50;100321.44;;;-2.49;100.00
45621;BME280;31345;51.522;10.702;2023-02-15T05:50:18;100329.09;;;-2.55;100.00
45621;BME280;31345;51.522;10.702;2023-02-15T05:52:52;100330.06;;;-2.42;100.00
45621;BME280;31345;51.522;10.702;2023-02-15T05:55:19;100338.81;;;-2.10;100.00
45621;BME280;31345;51.522;10.702;2023-02-15T05:57:52;100329.38;;;-2.16;100.00
45621;BME280;31345;51.522;10.702;2023-02-15T06:00:26;100331.94;;;-2.16;100.00
45621;BME280;31345;51.522;10.702;2023-02-15T06:02:58;100330.28;;;-2.08;100.00
45621;BME280;31345;51.522;10.702;2023-02-15T06:05:31;100330.28;;;-2.09;100.00
45621;BME280;31345;51.522;10.702;2023-02-15T06:07:59;100327.66;;;-2.20;100.00
45621;BME280;31345;51.522;10.702;2023-02-15T06:10:31;100322.50;;;-2.23;100.00
45621;BME280;31345;51.522;10.702;2023-02-15T06:13:04;100329.31;;;-2.27;100.00
45621;BME280;31345;51.522;10.702;2023-02-15T06:15:33;100321.53;;;-2.40;100.00
45621;BME280;31345;51.522;10.702;2023-02-15T06:18:00;100316.38;;;-2.46;100.00
45621;BME280;31345;51.522;10.702;2023-02-15T06:20:33;100323.22;;;-2.42;100.00
45621;BME280;31345;51.522;10.702;2023-02-15T06:23:05;100314.69;;;-2.44;100.00
45621;BME280;31345;51.522;10.702;2023-02-15T06:25:33;100317.97;;;-2.60;100.00
45621;BME280;31345;51.522;10.702;2023-02-15T06:28:06;100317.94;;;-2.65;100.00
45621;BME280;31345;51.522;10.702;2023-02-15T06:30:40;100320.22;;;-2.96;100.00
45621;BME280;31345;51.522;10.702;2023-02-15T06:33:12;100323.53;;;-3.04;100.00
45621;BME280;31345;51.522;10.702;2023-02-15T06:35:40;100324.31;;;-3.14;100.00
45621;BME280;31345;51.522;10.702;2023-02-15T06:38:07;100323.44;;;-3.16;100.00
45621;BME280;31345;51.522;10.702;2023-02-15T06:40:40;100323.47;;;-3.11;100.00
45621;BME280;31345;51.522;10.702;2023-02-15T06:43:12;100327.88;;;-2.96;100.00
45621;BME280;31345;51.522;10.702;2023-02-15T06:45:42;100330.47;;;-2.93;100.00
45621;BME280;31345;51.522;10.702;2023-02-15T06:48:14;100325.53;;;-2.74;100.00
45621;BME280;31345;51.522;10.702;2023-02-15T06:50:42;100327.28;;;-2.67;100.00
45621;BME280;31345;51.522;10.702;2023-02-15T06:53:15;100328.09;;;-2.74;100.00
45621;BME280;31345;51.522;10.702;2023-02-15T06:55:48;100322.84;;;-2.90;100.00
45621;BME280;31345;51.522;10.702;2023-02-15T06:58:15;100327.22;;;-2.77;100.00
45621;BME280;31345;51.522;10.702;2023-02-15T07:00:51;100319.41;;;-2.91;100.00
45621;BME280;31345;51.522;10.702;2023-02-15T07:03:24;100317.00;;;-2.73;100.00
45621;BME280;31345;51.522;10.702;2023-02-15T07:05:57;100319.63;;;-2.66;100.00
45621;BME280;31345;51.522;10.702;2023-02-15T07:08:30;100311.09;;;-2.63;100.00
45621;BME280;31345;51.522;10.702;2023-02-15T07:11:02;100308.59;;;-2.57;100.00
45621;BME280;31345;51.522;10.702;2023-02-15T07:13:44;100320.66;;;-2.43;100.00
45621;BME280;31345;51.522;10.702;2023-02-15T07:16:19;100316.31;;;-2.51;100.00
45621;BME280;31345;51.522;10.702;2023-02-15T07:18:46;100325.81;;;-2.37;100.00
45621;BME280;31345;51.522;10.702;2023-02-15T07:21:14;100324.97;;;-2.38;100.00
45621;BME280;31345;51.522;10.702;2023-02-15T07:23:41;100317.13;;;-2.58;100.00
45621;BME280;31345;51.522;10.702;2023-02-15T07:26:09;100320.56;;;-2.56;100.00
45621;BME280;31345;51.522;10.702;2023-02-15T07:28:41;100313.66;;;-2.65;100.00
45621;BME280;31345;51.522;10.702;2023-02-15T07:31:09;100318.00;;;-2.56;100.00
45621;BME280;31345;51.522;10.702;2023-02-15T07:33:43;100312.94;;;-2.49;100.00
45621;BME280;31345;51.522;10.702;2023-02-15T07:36:16;100313.03;;;-2.35;100.00
45621;BME280;31345;51.522;10.702;2023-02-15T07:38:43;100321.69;;;-2.15;100.00
45621;BME280;31345;51.522;10.702;2023-02-15T07:41:13;100317.38;;;-2.23;100.00
45621;BME280;31345;51.522;10.702;2023-02-15T07:43:45;100313.94;;;-2.29;100.00
45621;BME280;31345;51.522;10.702;2023-02-15T07:46:14;100311.34;;;-2.30;100.00
45621;BME280;31345;51.522;10.702;2023-02-15T07:48:49;100312.38;;;-1.97;100.00
45621;BME280;31345;51.522;10.702;2023-02-15T07:51:22;100311.50;;;-2.04;100.00
45621;BME280;31345;51.522;10.702;2023-02-15T07:53:54;100309.03;;;-1.94;100.00
45621;BME280;31345;51.522;10.702;2023-02-15T07:56:22;100311.44;;;-2.15;100.00
45621;BME280;31345;51.522;10.702;2023-02-15T07:58:54;100310.72;;;-1.95;100.00
45621;BME280;31345;51.522;10.702;2023-02-15T08:01:30;100308.94;;;-2.04;100.00
45621;BME280;31345;51.522;10.702;2023-02-15T08:04:00;100310.53;;;-2.24;100.00
45621;BME280;31345;51.522;10.702;2023-02-15T08:06:34;100308.97;;;-2.01;100.00
45621;BME280;31345;51.522;10.702;2023-02-15T08:09:03;100308.09;;;-2.07;100.00
45621;BME280;31345;51.522;10.702;2023-02-15T08:11:37;100309.00;;;-1.91;100.00
45621;BME280;31345;51.522;10.702;2023-02-15T08:14:07;100305.53;;;-2.04;100.00
45621;BME280;31345;51.522;10.702;2023-02-15T08:16:41;100306.44;;;-1.93;100.00
45621;BME280;31345;51.522;10.702;2023-02-15T08:19:15;100304.59;;;-2.19;100.00
45621;BME280;31345;51.522;10.702;2023-02-15T08:21:50;100302.13;;;-2.05;100.00
45621;BME280;31345;51.522;10.702;2023-02-15T08:24:25;100301.41;;;-1.76;100.00
45621;BME280;31345;51.522;10.702;2023-02-15T08:26:53;100300.53;;;-1.75;100.00
45621;BME280;31345;51.522;10.702;2023-02-15T08:29:22;100297.06;;;-1.89;100.00
45621;BME280;31345;51.522;10.702;2023-02-15T08:31:53;100289.47;;;-1.66;100.00
45621;BME280;31345;51.522;10.702;2023-02-15T08:34:29;100288.69;;;-1.52;100.00
45621;BME280;31345;51.522;10.702;2023-02-15T08:37:01;100288.72;;;-1.30;100.00
45621;BME280;31345;51.522;10.702;2023-02-15T08:39:29;100281.91;;;-1.22;100.00
45621;BME280;31345;51.522;10.702;2023-02-15T08:42:02;100277.63;;;-1.14;100.00
45621;BME280;31345;51.522;10.702;2023-02-15T08:44:35;100280.22;;;-0.98;100.00
45621;BME280;31345;51.522;10.702;2023-02-15T08:47:02;100285.38;;;-0.81;100.00
45621;BME280;31345;51.522;10.702;2023-02-15T08:49:36;100288.81;;;-0.69;100.00
45621;BME280;31345;51.522;10.702;2023-02-15T08:52:04;100279.38;;;-0.69;100.00
45621;BME280;31345;51.522;10.702;2023-02-15T08:54:37;100285.34;;;-0.54;100.00
45621;BME280;31345;51.522;10.702;2023-02-15T08:57:09;100279.38;;;-0.44;100.00
45621;BME280;31345;51.522;10.702;2023-02-15T08:59:42;100278.47;;;-0.29;100.00
45621;BME280;31345;51.522;10.702;2023-02-15T09:02:14;100277.63;;;-0.20;100.00
45621;BME280;31345;51.522;10.702;2023-02-15T09:04:43;100273.28;;;-0.07;100.00
45621;BME280;31345;51.522;10.702;2023-02-15T09:07:16;100273.28;;;-0.04;100.00
45621;BME280;31345;51.522;10.702;2023-02-15T09:09:45;100272.44;;;-0.09;100.00
45621;BME280;31345;51.522;10.702;2023-02-15T09:12:13;100269.88;;;-0.14;100.00
45621;BME280;31345;51.522;10.702;2023-02-15T09:14:45;100264.72;;;-0.08;100.00
45621;BME280;31345;51.522;10.702;2023-02-15T09:17:13;100266.50;;;-0.41;100.00
45621;BME280;31345;51.522;10.702;2023-02-15T09:19:47;100257.09;;;-0.34;100.00
45621;BME280;31345;51.522;10.702;2023-02-15T09:22:19;100267.34;;;-0.22;100.00
45621;BME280;31345;51.522;10.702;2023-02-15T09:24:52;100269.03;;;-0.19;100.00
45621;BME280;31345;51.522;10.702;2023-02-15T09:27:24;100259.63;;;-0.22;100.00
45621;BME280;31345;51.522;10.702;2023-02-15T09:29:57;100252.69;;;0.01;100.00
45621;BME280;31345;51.522;10.702;2023-02-15T09:32:25;100259.50;;;0.14;100.00
45621;BME280;31345;51.522;10.702;2023-02-15T09:34:59;100256.84;;;0.31;100.00
45621;BME280;31345;51.522;10.702;2023-02-15T09:37:26;100261.13;;;0.37;100.00
45621;BME280;31345;51.522;10.702;2023-02-15T09:39:54;100254.22;;;0.41;100.00
45621;BME280;31345;51.522;10.702;2023-02-15T09:45:30;100261.03;;;0.54;100.00
45621;BME280;31345;51.522;10.702;2023-02-15T09:48:20;100260.16;;;0.57;100.00
45621;BME280;31345;51.522;10.702;2023-02-15T09:51:04;100259.19;;;0.70;100.00
45621;BME280;31345;51.522;10.702;2023-02-15T09:53:52;100256.72;;;0.56;100.00
45621;BME280;31345;51.522;10.702;2023-02-15T09:56:28;100253.09;;;0.87;100.00
45621;BME280;31345;51.522;10.702;2023-02-15T09:59:10;100250.50;;;0.87;100.00
45621;BME280;31345;51.522;10.702;2023-02-15T10:01:46;100247.00;;;0.99;100.00
45621;BME280;31345;51.522;10.702;2023-02-15T10:04:31;100245.03;;;1.28;100.00
45621;BME280;31345;51.522;10.702;2023-02-15T10:07:11;100242.28;;;1.48;100.00
45621;BME280;31345;51.522;10.702;2023-02-15T10:09:52;100243.81;;;1.66;100.00
45621;BME280;31345;51.522;10.702;2023-02-15T10:12:39;100243.53;;;1.91;100.00
45621;BME280;31345;51.522;10.702;2023-02-15T10:15:34;100242.00;;;1.78;100.00
45621;BME280;31345;51.522;10.702;2023-02-15T10:18:23;100244.22;;;2.10;100.00
45621;BME280;31345;51.522;10.702;2023-02-15T10:21:03;100236.78;;;1.82;100.00
45621;BME280;31345;51.522;10.702;2023-02-15T10:23:51;100238.06;;;2.18;100.00
45621;BME280;31345;51.522;10.702;2023-02-15T10:26:28;100235.41;;;2.27;100.00
45621;BME280;31345;51.522;10.702;2023-02-15T10:29:05;100228.22;;;2.48;100.00
45621;BME280;31345;51.522;10.702;2023-02-15T10:31:48;100235.13;;;2.46;100.00
45621;BME280;31345;51.522;10.702;2023-02-15T10:34:27;100223.56;;;2.73;100.00
45621;BME280;31345;51.522;10.702;2023-02-15T10:37:34;100218.41;;;2.73;100.00
45621;BME280;31345;51.522;10.702;2023-02-15T10:40:11;100211.41;;;2.80;100.00
45621;BME280;31345;51.522;10.702;2023-02-15T10:42:58;100207.88;;;2.86;100.00
45621;BME280;31345;51.522;10.702;2023-02-15T10:45:41;100199.28;;;3.34;100.00
45621;BME280;31345;51.522;10.702;2023-02-15T10:48:25;100197.50;;;3.39;100.00
45621;BME280;31345;51.522;10.702;2023-02-15T10:50:55;100189.38;;;3.58;100.00
45621;BME280;31345;51.522;10.702;2023-02-15T10:53:48;100189.38;;;3.58;100.00
45621;BME280;31345;51.522;10.702;2023-02-15T10:56:24;100179.91;;;4.03;100.00
45621;BME280;31345;51.522;10.702;2023-02-15T10:59:18;100176.69;;;4.69;100.00
45621;BME280;31345;51.522;10.702;2023-02-15T11:01:59;100170.06;;;4.93;100.00
45621;BME280;31345;51.522;10.702;2023-02-15T11:04:45;100161.41;;;5.28;100.00
45621;BME280;31345;51.522;10.702;2023-02-15T11:07:17;100152.69;;;5.62;100.00
45621;BME280;31345;51.522;10.702;2023-02-15T11:09:49;100140.59;;;5.93;100.00
45621;BME280;31345;51.522;10.702;2023-02-15T11:12:26;100142.41;;;5.89;100.00
45621;BME280;31345;51.522;10.702;2023-02-15T11:15:04;100137.53;;;6.08;100.00
45621;BME280;31345;51.522;10.702;2023-02-15T11:17:46;100134.16;;;6.35;100.00
45621;BME280;31345;51.522;10.702;2023-02-15T11:20:21;100133.22;;;6.90;100.00
45621;BME280;31345;51.522;10.702;2023-02-15T11:22:56;100120.28;;;7.14;100.00
45621;BME280;31345;51.522;10.702;2023-02-15T11:25:28;100116.34;;;7.27;98.57
45621;BME280;31345;51.522;10.702;2023-02-15T11:27:59;100108.75;;;6.96;96.10
45621;BME280;31345;51.522;10.702;2023-02-15T11:30:42;100114.84;;;7.46;100.00
45621;BME280;31345;51.522;10.702;2023-02-15T11:33:18;100098.66;;;7.63;97.85
45621;BME280;31345;51.522;10.702;2023-02-15T11:35:57;100099.88;;;7.76;92.63
45621;BME280;31345;51.522;10.702;2023-02-15T11:38:33;100096.38;;;8.00;88.60
45621;BME280;31345;51.522;10.702;2023-02-15T11:41:09;100099.63;;;7.82;90.85
45621;BME280;31345;51.522;10.702;2023-02-15T11:43:43;100101.91;;;8.14;91.50
45621;BME280;31345;51.522;10.702;2023-02-15T11:46:17;100105.41;;;8.36;91.46
45621;BME280;31345;51.522;10.702;2023-02-15T11:48:50;100104.56;;;8.13;93.25
45621;BME280;31345;51.522;10.702;2023-02-15T11:51:23;100104.69;;;7.63;100.00
45621;BME280;31345;51.522;10.702;2023-02-15T11:53:52;100111.63;;;7.87;100.00
45621;BME280;31345;51.522;10.702;2023-02-15T11:56:21;100108.25;;;8.07;100.00
45621;BME280;31345;51.522;10.702;2023-02-15T11:59:00;100107.88;;;7.94;100.00
45621;BME280;31345;51.522;10.702;2023-02-15T12:01:36;100109.66;;;7.93;100.00
45621;BME280;31345;51.522;10.702;2023-02-15T12:04:17;100104.16;;;7.77;99.77
45621;BME280;31345;51.522;10.702;2023-02-15T12:06:54;100107.69;;;7.76;99.50
45621;BME280;31345;51.522;10.702;2023-02-15T12:09:32;100107.63;;;7.54;100.00
45621;BME280;31345;51.522;10.702;2023-02-15T12:12:24;100105.91;;;7.53;100.00
45621;BME280;31345;51.522;10.702;2023-02-15T12:14:59;100094.63;;;7.54;99.91
45621;BME280;31345;51.522;10.702;2023-02-15T12:17:33;100092.16;;;7.73;98.63
45621;BME280;31345;51.522;10.702;2023-02-15T12:22:50;100088.03;;;7.43;100.00
45621;BME280;31345;51.522;10.702;2023-02-15T12:25:22;100074.53;;;7.57;94.88
45621;BME280;31345;51.522;10.702;2023-02-15T12:27:50;100078.59;;;7.65;92.50
45621;BME280;31345;51.522;10.702;2023-02-15T12:30:29;100070.56;;;7.71;93.79
45621;BME280;31345;51.522;10.702;2023-02-15T12:33:05;100069.22;;;7.61;91.22
45621;BME280;31345;51.522;10.702;2023-02-15T12:35:46;100073.94;;;7.73;91.12
45621;BME280;31345;51.522;10.702;2023-02-15T12:38:23;100074.13;;;7.68;92.23
45621;BME280;31345;51.522;10.702;2023-02-15T12:40:58;100065.75;;;7.60;91.38
45621;BME280;31345;51.522;10.702;2023-02-15T12:43:34;100064.66;;;7.66;91.11
45621;BME280;31345;51.522;10.702;2023-02-15T12:46:20;100067.97;;;7.93;91.86
45621;BME280;31345;51.522;10.702;2023-02-15T12:49:07;100067.06;;;7.94;93.94
45621;BME280;31345;51.522;10.702;2023-02-15T12:51:48;100060.50;;;8.06;94.51
45621;BME280;31345;51.522;10.702;2023-02-15T12:54:33;100060.94;;;8.18;92.91
45621;BME280;31345;51.522;10.702;2023-02-15T12:57:24;100055.03;;;7.92;94.21
45621;BME280;31345;51.522;10.702;2023-02-15T12:59:59;100047.34;;;8.32;92.63
45621;BME280;31345;51.522;10.702;2023-02-15T13:02:31;100043.94;;;8.52;89.93
45621;BME280;31345;51.522;10.702;2023-02-15T13:05:16;100046.28;;;8.79;90.39
45621;BME280;31345;51.522;10.702;2023-02-15T13:07:50;100047.19;;;8.57;94.54
45621;BME280;31345;51.522;10.702;2023-02-15T13:10:23;100045.63;;;8.53;94.00
45621;BME280;31345;51.522;10.702;2023-02-15T13:12:56;100043.88;;;8.54;95.16
45621;BME280;31345;51.522;10.702;2023-02-15T13:15:34;100044.53;;;9.20;89.10
45621;BME280;31345;51.522;10.702;2023-02-15T13:18:05;100039.38;;;9.18;89.84